Аэропорт: Ульяновск-Восточный. Ульяновск

ICAO: UWLW

METAR:
2022-06-26 11:00:00
UWLW 261100Z 36006MPS 330V030 CAVOK 23/08 Q1016 R02/CLRD60 NOSIG RMK QFE755/1007
METAR:
2022-06-26 07:54:00
TAF UWLW 260754Z 2609/2709 02007MPS CAVOK TX25/2612Z TN12/2701Z TEMPO 2609/2616 35007G14MPS BECMG 2616/2618 32003MPS TEMPO 2705/2709 27003G09MPS